sensor_id;sensor_type;location;lat;lon;timestamp;P1;durP1;ratioP1;P2;durP2;ratioP2
12110;SDS011;6119;52.372;8.990;2023-04-06T00:00:21;5.77;;;5.03;;
12110;SDS011;6119;52.372;8.990;2023-04-06T00:03:08;6.57;;;5.23;;
12110;SDS011;6119;52.372;8.990;2023-04-06T00:05:54;8.20;;;5.27;;
12110;SDS011;6119;52.372;8.990;2023-04-06T00:08:41;9.20;;;5.93;;
12110;SDS011;6119;52.372;8.990;2023-04-06T00:11:30;6.93;;;5.17;;
12110;SDS011;6119;52.372;8.990;2023-04-06T00:14:17;6.30;;;5.37;;
12110;SDS011;6119;52.372;8.990;2023-04-06T00:17:04;8.17;;;5.40;;
12110;SDS011;6119;52.372;8.990;2023-04-06T00:19:51;8.40;;;5.83;;
12110;SDS011;6119;52.372;8.990;2023-04-06T00:22:37;5.70;;;5.13;;
12110;SDS011;6119;52.372;8.990;2023-04-06T00:25:23;8.43;;;5.27;;
12110;SDS011;6119;52.372;8.990;2023-04-06T00:28:11;7.90;;;5.37;;
12110;SDS011;6119;52.372;8.990;2023-04-06T00:30:58;6.67;;;5.10;;
12110;SDS011;6119;52.372;8.990;2023-04-06T00:33:45;7.77;;;5.30;;
12110;SDS011;6119;52.372;8.990;2023-04-06T00:36:31;8.67;;;5.10;;
12110;SDS011;6119;52.372;8.990;2023-04-06T00:39:17;7.30;;;4.87;;
12110;SDS011;6119;52.372;8.990;2023-04-06T00:42:07;7.40;;;5.00;;
12110;SDS011;6119;52.372;8.990;2023-04-06T00:44:58;7.20;;;5.17;;
12110;SDS011;6119;52.372;8.990;2023-04-06T00:47:45;6.00;;;5.00;;
12110;SDS011;6119;52.372;8.990;2023-04-06T00:50:32;6.77;;;4.47;;
12110;SDS011;6119;52.372;8.990;2023-04-06T00:53:19;6.23;;;4.93;;
12110;SDS011;6119;52.372;8.990;2023-04-06T00:56:06;7.03;;;4.27;;
12110;SDS011;6119;52.372;8.990;2023-04-06T00:58:54;7.03;;;5.27;;
12110;SDS011;6119;52.372;8.990;2023-04-06T01:01:42;7.33;;;4.60;;
12110;SDS011;6119;52.372;8.990;2023-04-06T01:04:29;6.50;;;4.90;;
12110;SDS011;6119;52.372;8.990;2023-04-06T01:07:17;5.50;;;4.60;;
12110;SDS011;6119;52.372;8.990;2023-04-06T01:10:04;5.50;;;4.50;;
12110;SDS011;6119;52.372;8.990;2023-04-06T01:12:51;6.13;;;4.93;;
12110;SDS011;6119;52.372;8.990;2023-04-06T01:15:37;10.27;;;4.67;;
12110;SDS011;6119;52.372;8.990;2023-04-06T01:18:29;5.37;;;4.77;;
12110;SDS011;6119;52.372;8.990;2023-04-06T01:21:16;8.13;;;4.73;;
12110;SDS011;6119;52.372;8.990;2023-04-06T01:24:04;5.87;;;4.80;;
12110;SDS011;6119;52.372;8.990;2023-04-06T01:26:52;7.33;;;4.50;;
12110;SDS011;6119;52.372;8.990;2023-04-06T01:29:38;6.43;;;4.67;;
12110;SDS011;6119;52.372;8.990;2023-04-06T01:32:26;9.60;;;4.70;;
12110;SDS011;6119;52.372;8.990;2023-04-06T01:35:13;6.30;;;4.53;;
12110;SDS011;6119;52.372;8.990;2023-04-06T01:38:00;7.97;;;4.87;;
12110;SDS011;6119;52.372;8.990;2023-04-06T01:40:48;5.30;;;4.57;;
12110;SDS011;6119;52.372;8.990;2023-04-06T01:43:35;5.17;;;4.17;;
12110;SDS011;6119;52.372;8.990;2023-04-06T01:46:21;6.17;;;4.70;;
12110;SDS011;6119;52.372;8.990;2023-04-06T01:49:07;5.20;;;4.33;;
12110;SDS011;6119;52.372;8.990;2023-04-06T01:51:54;4.77;;;4.27;;
12110;SDS011;6119;52.372;8.990;2023-04-06T01:54:40;7.07;;;5.13;;
12110;SDS011;6119;52.372;8.990;2023-04-06T01:57:28;5.90;;;4.50;;
12110;SDS011;6119;52.372;8.990;2023-04-06T02:00:15;7.43;;;4.70;;
12110;SDS011;6119;52.372;8.990;2023-04-06T02:03:02;6.30;;;4.77;;
12110;SDS011;6119;52.372;8.990;2023-04-06T02:05:49;5.87;;;4.50;;
12110;SDS011;6119;52.372;8.990;2023-04-06T02:08:35;5.50;;;4.50;;
12110;SDS011;6119;52.372;8.990;2023-04-06T02:11:22;6.23;;;4.20;;
12110;SDS011;6119;52.372;8.990;2023-04-06T02:14:10;6.87;;;4.70;;
12110;SDS011;6119;52.372;8.990;2023-04-06T02:16:57;5.83;;;4.33;;
12110;SDS011;6119;52.372;8.990;2023-04-06T02:19:43;5.40;;;4.73;;
12110;SDS011;6119;52.372;8.990;2023-04-06T02:22:30;6.03;;;4.50;;
12110;SDS011;6119;52.372;8.990;2023-04-06T02:25:16;6.00;;;4.70;;
12110;SDS011;6119;52.372;8.990;2023-04-06T02:28:03;6.80;;;4.83;;
12110;SDS011;6119;52.372;8.990;2023-04-06T02:30:51;6.00;;;4.30;;
12110;SDS011;6119;52.372;8.990;2023-04-06T02:33:38;5.37;;;4.30;;
12110;SDS011;6119;52.372;8.990;2023-04-06T02:36:24;6.20;;;4.50;;
12110;SDS011;6119;52.372;8.990;2023-04-06T02:39:11;4.87;;;4.37;;
12110;SDS011;6119;52.372;8.990;2023-04-06T02:41:58;6.77;;;4.53;;
12110;SDS011;6119;52.372;8.990;2023-04-06T02:44:45;5.33;;;4.50;;
12110;SDS011;6119;52.372;8.990;2023-04-06T02:47:32;4.67;;;3.93;;
12110;SDS011;6119;52.372;8.990;2023-04-06T02:50:19;8.90;;;4.47;;
12110;SDS011;6119;52.372;8.990;2023-04-06T02:53:06;4.97;;;4.47;;
12110;SDS011;6119;52.372;8.990;2023-04-06T02:55:53;4.60;;;4.10;;
12110;SDS011;6119;52.372;8.990;2023-04-06T02:58:40;4.83;;;4.33;;
12110;SDS011;6119;52.372;8.990;2023-04-06T03:01:27;4.83;;;3.93;;
12110;SDS011;6119;52.372;8.990;2023-04-06T03:04:15;5.83;;;4.57;;
12110;SDS011;6119;52.372;8.990;2023-04-06T03:07:02;6.20;;;4.33;;
12110;SDS011;6119;52.372;8.990;2023-04-06T03:09:48;4.37;;;3.97;;
12110;SDS011;6119;52.372;8.990;2023-04-06T03:12:35;4.30;;;3.90;;
12110;SDS011;6119;52.372;8.990;2023-04-06T03:15:22;5.53;;;4.50;;
12110;SDS011;6119;52.372;8.990;2023-04-06T03:18:08;5.13;;;4.13;;
12110;SDS011;6119;52.372;8.990;2023-04-06T03:20:56;5.53;;;4.20;;
12110;SDS011;6119;52.372;8.990;2023-04-06T03:23:45;4.83;;;3.63;;
12110;SDS011;6119;52.372;8.990;2023-04-06T03:26:33;7.63;;;4.00;;
12110;SDS011;6119;52.372;8.990;2023-04-06T03:29:19;6.73;;;4.17;;
12110;SDS011;6119;52.372;8.990;2023-04-06T03:32:06;4.63;;;3.83;;
12110;SDS011;6119;52.372;8.990;2023-04-06T03:34:55;4.50;;;3.97;;
12110;SDS011;6119;52.372;8.990;2023-04-06T03:37:42;7.57;;;5.00;;
12110;SDS011;6119;52.372;8.990;2023-04-06T03:40:29;5.30;;;3.77;;
12110;SDS011;6119;52.372;8.990;2023-04-06T03:43:16;5.13;;;4.20;;
12110;SDS011;6119;52.372;8.990;2023-04-06T03:46:02;6.50;;;4.00;;
12110;SDS011;6119;52.372;8.990;2023-04-06T03:48:49;5.87;;;4.37;;
12110;SDS011;6119;52.372;8.990;2023-04-06T03:51:35;6.30;;;4.43;;
12110;SDS011;6119;52.372;8.990;2023-04-06T03:54:24;5.53;;;3.93;;
12110;SDS011;6119;52.372;8.990;2023-04-06T03:57:10;5.67;;;4.57;;
12110;SDS011;6119;52.372;8.990;2023-04-06T03:59:57;9.80;;;4.60;;
12110;SDS011;6119;52.372;8.990;2023-04-06T04:02:43;4.70;;;3.97;;
12110;SDS011;6119;52.372;8.990;2023-04-06T04:05:30;5.87;;;4.43;;
12110;SDS011;6119;52.372;8.990;2023-04-06T04:08:16;5.10;;;4.23;;
12110;SDS011;6119;52.372;8.990;2023-04-06T04:11:04;4.30;;;3.80;;
12110;SDS011;6119;52.372;8.990;2023-04-06T04:13:51;5.70;;;3.90;;
12110;SDS011;6119;52.372;8.990;2023-04-06T04:16:37;5.53;;;3.90;;
12110;SDS011;6119;52.372;8.990;2023-04-06T04:19:26;6.83;;;4.00;;
12110;SDS011;6119;52.372;8.990;2023-04-06T04:22:12;8.50;;;4.20;;
12110;SDS011;6119;52.372;8.990;2023-04-06T04:24:59;8.83;;;4.20;;
12110;SDS011;6119;52.372;8.990;2023-04-06T04:27:47;5.13;;;4.20;;
12110;SDS011;6119;52.372;8.990;2023-04-06T04:30:33;5.90;;;4.27;;
12110;SDS011;6119;52.372;8.990;2023-04-06T04:33:20;6.63;;;4.63;;
12110;SDS011;6119;52.372;8.990;2023-04-06T04:36:06;8.27;;;4.57;;
12110;SDS011;6119;52.372;8.990;2023-04-06T04:38:54;5.97;;;4.63;;
12110;SDS011;6119;52.372;8.990;2023-04-06T04:41:42;5.93;;;4.90;;
12110;SDS011;6119;52.372;8.990;2023-04-06T04:44:30;8.70;;;4.90;;
12110;SDS011;6119;52.372;8.990;2023-04-06T04:47:17;6.10;;;5.10;;
12110;SDS011;6119;52.372;8.990;2023-04-06T04:50:03;6.97;;;5.17;;
12110;SDS011;6119;52.372;8.990;2023-04-06T04:52:51;6.27;;;5.30;;
12110;SDS011;6119;52.372;8.990;2023-04-06T04:55:37;6.63;;;5.00;;
12110;SDS011;6119;52.372;8.990;2023-04-06T04:58:23;6.23;;;5.23;;
12110;SDS011;6119;52.372;8.990;2023-04-06T05:01:11;8.67;;;6.07;;
12110;SDS011;6119;52.372;8.990;2023-04-06T05:03:58;7.30;;;5.70;;
12110;SDS011;6119;52.372;8.990;2023-04-06T05:06:44;8.30;;;6.30;;
12110;SDS011;6119;52.372;8.990;2023-04-06T05:09:31;7.00;;;5.93;;
12110;SDS011;6119;52.372;8.990;2023-04-06T05:12:18;8.53;;;6.30;;
12110;SDS011;6119;52.372;8.990;2023-04-06T05:15:05;8.93;;;6.13;;
12110;SDS011;6119;52.372;8.990;2023-04-06T05:17:54;7.90;;;6.10;;
12110;SDS011;6119;52.372;8.990;2023-04-06T05:20:40;7.93;;;5.80;;
12110;SDS011;6119;52.372;8.990;2023-04-06T05:23:28;14.70;;;6.83;;
12110;SDS011;6119;52.372;8.990;2023-04-06T05:26:15;9.13;;;7.33;;
12110;SDS011;6119;52.372;8.990;2023-04-06T05:29:01;8.87;;;7.60;;
12110;SDS011;6119;52.372;8.990;2023-04-06T05:31:48;10.10;;;8.33;;
12110;SDS011;6119;52.372;8.990;2023-04-06T05:34:37;8.63;;;7.80;;
12110;SDS011;6119;52.372;8.990;2023-04-06T05:37:24;10.00;;;7.17;;
12110;SDS011;6119;52.372;8.990;2023-04-06T05:40:11;9.67;;;7.07;;
12110;SDS011;6119;52.372;8.990;2023-04-06T05:42:57;9.97;;;6.57;;
12110;SDS011;6119;52.372;8.990;2023-04-06T05:45:44;8.20;;;6.63;;
12110;SDS011;6119;52.372;8.990;2023-04-06T05:48:31;9.00;;;6.87;;
12110;SDS011;6119;52.372;8.990;2023-04-06T05:51:19;10.83;;;6.87;;
12110;SDS011;6119;52.372;8.990;2023-04-06T05:54:06;8.97;;;6.50;;
12110;SDS011;6119;52.372;8.990;2023-04-06T05:56:52;8.90;;;6.73;;
12110;SDS011;6119;52.372;8.990;2023-04-06T05:59:39;11.20;;;6.67;;
12110;SDS011;6119;52.372;8.990;2023-04-06T06:02:25;8.20;;;5.90;;
12110;SDS011;6119;52.372;8.990;2023-04-06T06:05:12;8.17;;;6.00;;
12110;SDS011;6119;52.372;8.990;2023-04-06T06:08:00;10.73;;;6.57;;
12110;SDS011;6119;52.372;8.990;2023-04-06T06:10:47;10.07;;;6.33;;
12110;SDS011;6119;52.372;8.990;2023-04-06T06:13:34;11.70;;;7.17;;
12110;SDS011;6119;52.372;8.990;2023-04-06T06:16:21;10.30;;;6.23;;
12110;SDS011;6119;52.372;8.990;2023-04-06T06:19:08;11.10;;;6.53;;
12110;SDS011;6119;52.372;8.990;2023-04-06T06:21:55;9.57;;;6.37;;
12110;SDS011;6119;52.372;8.990;2023-04-06T06:24:42;9.93;;;5.57;;
12110;SDS011;6119;52.372;8.990;2023-04-06T06:27:29;6.77;;;5.03;;
12110;SDS011;6119;52.372;8.990;2023-04-06T06:30:16;6.30;;;4.47;;
12110;SDS011;6119;52.372;8.990;2023-04-06T06:33:06;5.30;;;3.50;;
12110;SDS011;6119;52.372;8.990;2023-04-06T06:35:53;6.90;;;4.10;;
12110;SDS011;6119;52.372;8.990;2023-04-06T06:38:40;6.73;;;4.23;;
12110;SDS011;6119;52.372;8.990;2023-04-06T06:41:27;5.07;;;4.17;;
12110;SDS011;6119;52.372;8.990;2023-04-06T06:44:14;8.53;;;4.03;;
12110;SDS011;6119;52.372;8.990;2023-04-06T06:47:02;4.97;;;3.67;;
12110;SDS011;6119;52.372;8.990;2023-04-06T06:49:48;5.53;;;3.77;;
12110;SDS011;6119;52.372;8.990;2023-04-06T06:52:35;4.00;;;3.47;;
12110;SDS011;6119;52.372;8.990;2023-04-06T06:55:21;4.93;;;3.37;;
12110;SDS011;6119;52.372;8.990;2023-04-06T06:58:09;6.43;;;3.27;;
12110;SDS011;6119;52.372;8.990;2023-04-06T07:00:56;4.63;;;3.57;;
12110;SDS011;6119;52.372;8.990;2023-04-06T07:03:43;5.27;;;3.77;;
12110;SDS011;6119;52.372;8.990;2023-04-06T07:06:30;5.30;;;4.00;;
12110;SDS011;6119;52.372;8.990;2023-04-06T07:09:16;7.83;;;4.20;;
12110;SDS011;6119;52.372;8.990;2023-04-06T07:12:03;4.40;;;3.77;;
12110;SDS011;6119;52.372;8.990;2023-04-06T07:14:51;5.60;;;3.83;;
12110;SDS011;6119;52.372;8.990;2023-04-06T07:17:38;4.13;;;3.47;;
12110;SDS011;6119;52.372;8.990;2023-04-06T07:20:26;7.37;;;3.10;;
12110;SDS011;6119;52.372;8.990;2023-04-06T07:23:13;4.80;;;3.70;;
12110;SDS011;6119;52.372;8.990;2023-04-06T07:26:00;5.70;;;3.77;;
12110;SDS011;6119;52.372;8.990;2023-04-06T07:28:46;4.70;;;3.50;;
12110;SDS011;6119;52.372;8.990;2023-04-06T07:31:34;6.20;;;4.07;;
12110;SDS011;6119;52.372;8.990;2023-04-06T07:34:21;4.87;;;3.73;;
12110;SDS011;6119;52.372;8.990;2023-04-06T07:37:08;4.23;;;3.60;;
12110;SDS011;6119;52.372;8.990;2023-04-06T07:39:54;5.17;;;3.67;;
12110;SDS011;6119;52.372;8.990;2023-04-06T07:42:40;5.17;;;3.97;;
12110;SDS011;6119;52.372;8.990;2023-04-06T07:45:27;4.60;;;3.93;;
12110;SDS011;6119;52.372;8.990;2023-04-06T07:48:15;6.10;;;4.10;;
12110;SDS011;6119;52.372;8.990;2023-04-06T07:51:02;4.77;;;3.57;;
12110;SDS011;6119;52.372;8.990;2023-04-06T07:53:49;5.03;;;3.90;;
12110;SDS011;6119;52.372;8.990;2023-04-06T07:56:37;6.37;;;4.00;;
12110;SDS011;6119;52.372;8.990;2023-04-06T07:59:23;5.87;;;4.00;;
12110;SDS011;6119;52.372;8.990;2023-04-06T08:02:10;6.60;;;4.13;;
12110;SDS011;6119;52.372;8.990;2023-04-06T08:04:58;7.73;;;3.60;;
12110;SDS011;6119;52.372;8.990;2023-04-06T08:07:44;4.90;;;3.80;;
12110;SDS011;6119;52.372;8.990;2023-04-06T08:10:31;6.17;;;3.90;;
12110;SDS011;6119;52.372;8.990;2023-04-06T08:13:19;6.07;;;3.87;;
12110;SDS011;6119;52.372;8.990;2023-04-06T08:16:06;6.77;;;3.80;;
12110;SDS011;6119;52.372;8.990;2023-04-06T08:18:53;6.70;;;4.53;;
12110;SDS011;6119;52.372;8.990;2023-04-06T08:21:41;5.47;;;4.27;;
12110;SDS011;6119;52.372;8.990;2023-04-06T08:24:28;5.30;;;3.90;;
12110;SDS011;6119;52.372;8.990;2023-04-06T08:27:15;6.83;;;4.00;;
12110;SDS011;6119;52.372;8.990;2023-04-06T08:30:02;5.20;;;3.80;;
12110;SDS011;6119;52.372;8.990;2023-04-06T08:32:48;7.40;;;3.63;;
12110;SDS011;6119;52.372;8.990;2023-04-06T08:35:36;5.13;;;4.03;;
12110;SDS011;6119;52.372;8.990;2023-04-06T08:38:24;5.60;;;4.10;;
12110;SDS011;6119;52.372;8.990;2023-04-06T08:41:11;5.73;;;3.90;;
12110;SDS011;6119;52.372;8.990;2023-04-06T08:43:59;5.10;;;3.53;;
12110;SDS011;6119;52.372;8.990;2023-04-06T08:46:47;6.17;;;4.43;;
12110;SDS011;6119;52.372;8.990;2023-04-06T08:49:36;7.70;;;4.07;;
12110;SDS011;6119;52.372;8.990;2023-04-06T08:52:23;4.37;;;3.90;;
12110;SDS011;6119;52.372;8.990;2023-04-06T08:55:13;7.03;;;4.60;;
12110;SDS011;6119;52.372;8.990;2023-04-06T08:58:00;5.53;;;4.20;;
12110;SDS011;6119;52.372;8.990;2023-04-06T09:00:47;5.87;;;4.33;;
12110;SDS011;6119;52.372;8.990;2023-04-06T09:03:36;4.60;;;4.07;;
12110;SDS011;6119;52.372;8.990;2023-04-06T09:06:26;5.27;;;3.93;;
12110;SDS011;6119;52.372;8.990;2023-04-06T09:09:13;7.33;;;4.37;;
12110;SDS011;6119;52.372;8.990;2023-04-06T09:12:01;7.73;;;4.50;;
12110;SDS011;6119;52.372;8.990;2023-04-06T09:14:51;6.93;;;4.63;;
12110;SDS011;6119;52.372;8.990;2023-04-06T09:17:38;6.07;;;4.40;;
12110;SDS011;6119;52.372;8.990;2023-04-06T09:20:24;6.37;;;4.63;;
12110;SDS011;6119;52.372;8.990;2023-04-06T09:23:17;8.03;;;3.97;;
12110;SDS011;6119;52.372;8.990;2023-04-06T09:26:05;5.87;;;4.47;;
12110;SDS011;6119;52.372;8.990;2023-04-06T09:28:54;5.20;;;4.10;;
12110;SDS011;6119;52.372;8.990;2023-04-06T09:31:42;7.50;;;4.80;;
12110;SDS011;6119;52.372;8.990;2023-04-06T09:34:29;7.60;;;4.20;;
12110;SDS011;6119;52.372;8.990;2023-04-06T09:37:17;6.23;;;4.27;;
12110;SDS011;6119;52.372;8.990;2023-04-06T09:40:05;7.23;;;5.40;;
12110;SDS011;6119;52.372;8.990;2023-04-06T09:42:53;7.07;;;5.10;;
12110;SDS011;6119;52.372;8.990;2023-04-06T09:45:43;6.13;;;4.73;;
12110;SDS011;6119;52.372;8.990;2023-04-06T09:48:32;6.77;;;4.50;;
12110;SDS011;6119;52.372;8.990;2023-04-06T09:51:20;5.50;;;4.60;;
12110;SDS011;6119;52.372;8.990;2023-04-06T09:54:08;9.00;;;4.87;;
12110;SDS011;6119;52.372;8.990;2023-04-06T09:56:59;7.63;;;5.13;;
12110;SDS011;6119;52.372;8.990;2023-04-06T09:59:54;6.60;;;5.27;;
12110;SDS011;6119;52.372;8.990;2023-04-06T10:02:56;6.33;;;5.30;;
12110;SDS011;6119;52.372;8.990;2023-04-06T10:05:46;10.00;;;5.20;;
12110;SDS011;6119;52.372;8.990;2023-04-06T10:08:36;5.93;;;4.63;;
12110;SDS011;6119;52.372;8.990;2023-04-06T10:11:26;5.70;;;4.83;;
12110;SDS011;6119;52.372;8.990;2023-04-06T10:14:13;6.60;;;5.00;;
12110;SDS011;6119;52.372;8.990;2023-04-06T10:17:00;5.83;;;4.80;;
12110;SDS011;6119;52.372;8.990;2023-04-06T10:19:52;8.30;;;5.43;;
12110;SDS011;6119;52.372;8.990;2023-04-06T10:22:44;9.70;;;5.83;;
12110;SDS011;6119;52.372;8.990;2023-04-06T10:25:37;8.67;;;5.40;;
12110;SDS011;6119;52.372;8.990;2023-04-06T10:28:25;9.73;;;5.93;;
12110;SDS011;6119;52.372;8.990;2023-04-06T10:31:23;11.77;;;6.00;;
12110;SDS011;6119;52.372;8.990;2023-04-06T10:34:11;8.63;;;5.90;;
12110;SDS011;6119;52.372;8.990;2023-04-06T10:37:00;8.77;;;6.10;;
12110;SDS011;6119;52.372;8.990;2023-04-06T10:39:56;8.27;;;6.30;;
12110;SDS011;6119;52.372;8.990;2023-04-06T10:42:43;8.27;;;6.23;;
12110;SDS011;6119;52.372;8.990;2023-04-06T10:45:30;10.27;;;6.97;;
12110;SDS011;6119;52.372;8.990;2023-04-06T10:48:18;8.37;;;6.50;;
12110;SDS011;6119;52.372;8.990;2023-04-06T10:51:07;11.97;;;6.83;;
12110;SDS011;6119;52.372;8.990;2023-04-06T10:53:56;11.03;;;7.27;;
12110;SDS011;6119;52.372;8.990;2023-04-06T10:56:45;9.83;;;6.60;;
12110;SDS011;6119;52.372;8.990;2023-04-06T10:59:32;9.80;;;6.87;;
12110;SDS011;6119;52.372;8.990;2023-04-06T11:02:19;10.53;;;7.83;;
12110;SDS011;6119;52.372;8.990;2023-04-06T11:05:06;11.47;;;7.17;;
12110;SDS011;6119;52.372;8.990;2023-04-06T11:07:53;10.70;;;6.67;;
12110;SDS011;6119;52.372;8.990;2023-04-06T11:10:41;7.77;;;6.13;;
12110;SDS011;6119;52.372;8.990;2023-04-06T11:13:36;10.00;;;7.07;;
12110;SDS011;6119;52.372;8.990;2023-04-06T11:16:24;9.13;;;6.60;;
12110;SDS011;6119;52.372;8.990;2023-04-06T11:19:11;9.63;;;6.83;;
12110;SDS011;6119;52.372;8.990;2023-04-06T11:22:06;10.17;;;6.97;;
12110;SDS011;6119;52.372;8.990;2023-04-06T11:24:53;9.90;;;6.87;;
12110;SDS011;6119;52.372;8.990;2023-04-06T11:27:51;10.00;;;6.63;;
12110;SDS011;6119;52.372;8.990;2023-04-06T11:30:38;9.77;;;7.03;;
12110;SDS011;6119;52.372;8.990;2023-04-06T11:33:24;10.17;;;6.67;;
12110;SDS011;6119;52.372;8.990;2023-04-06T11:36:11;13.60;;;7.70;;
12110;SDS011;6119;52.372;8.990;2023-04-06T11:39:00;12.07;;;7.53;;
12110;SDS011;6119;52.372;8.990;2023-04-06T11:41:49;11.43;;;7.23;;
12110;SDS011;6119;52.372;8.990;2023-04-06T11:44:38;9.37;;;7.43;;
12110;SDS011;6119;52.372;8.990;2023-04-06T11:47:27;11.77;;;7.53;;
12110;SDS011;6119;52.372;8.990;2023-04-06T11:50:15;10.53;;;7.33;;
12110;SDS011;6119;52.372;8.990;2023-04-06T11:53:02;11.13;;;7.40;;
12110;SDS011;6119;52.372;8.990;2023-04-06T11:55:49;11.93;;;8.23;;
12110;SDS011;6119;52.372;8.990;2023-04-06T11:58:35;11.67;;;7.67;;
12110;SDS011;6119;52.372;8.990;2023-04-06T12:01:23;14.07;;;8.67;;
12110;SDS011;6119;52.372;8.990;2023-04-06T12:04:10;10.33;;;7.97;;
12110;SDS011;6119;52.372;8.990;2023-04-06T12:06:57;12.07;;;8.07;;
12110;SDS011;6119;52.372;8.990;2023-04-06T12:09:44;12.37;;;8.13;;
12110;SDS011;6119;52.372;8.990;2023-04-06T12:12:30;12.27;;;8.63;;
12110;SDS011;6119;52.372;8.990;2023-04-06T12:15:17;12.80;;;8.60;;
12110;SDS011;6119;52.372;8.990;2023-04-06T12:18:05;13.07;;;8.27;;
12110;SDS011;6119;52.372;8.990;2023-04-06T12:20:52;12.80;;;8.53;;
12110;SDS011;6119;52.372;8.990;2023-04-06T12:23:38;10.03;;;7.63;;
12110;SDS011;6119;52.372;8.990;2023-04-06T12:26:25;10.67;;;7.83;;
12110;SDS011;6119;52.372;8.990;2023-04-06T12:29:12;11.93;;;7.97;;
12110;SDS011;6119;52.372;8.990;2023-04-06T12:31:59;12.03;;;7.87;;
12110;SDS011;6119;52.372;8.990;2023-04-06T12:34:48;11.17;;;8.20;;
12110;SDS011;6119;52.372;8.990;2023-04-06T12:37:35;13.03;;;8.07;;
12110;SDS011;6119;52.372;8.990;2023-04-06T12:40:21;10.23;;;7.47;;
12110;SDS011;6119;52.372;8.990;2023-04-06T12:43:08;10.27;;;7.77;;
12110;SDS011;6119;52.372;8.990;2023-04-06T12:45:54;11.63;;;7.37;;
12110;SDS011;6119;52.372;8.990;2023-04-06T12:48:41;10.90;;;7.77;;
12110;SDS011;6119;52.372;8.990;2023-04-06T12:51:29;11.07;;;8.07;;
12110;SDS011;6119;52.372;8.990;2023-04-06T12:54:16;10.63;;;7.77;;
12110;SDS011;6119;52.372;8.990;2023-04-06T12:57:03;11.50;;;7.70;;
12110;SDS011;6119;52.372;8.990;2023-04-06T12:59:50;9.40;;;7.27;;
12110;SDS011;6119;52.372;8.990;2023-04-06T13:02:37;13.13;;;7.83;;
12110;SDS011;6119;52.372;8.990;2023-04-06T13:05:24;10.03;;;7.20;;
12110;SDS011;6119;52.372;8.990;2023-04-06T13:08:14;11.07;;;7.80;;
12110;SDS011;6119;52.372;8.990;2023-04-06T13:11:02;11.17;;;8.20;;
12110;SDS011;6119;52.372;8.990;2023-04-06T13:13:49;15.03;;;8.47;;
12110;SDS011;6119;52.372;8.990;2023-04-06T13:16:36;11.07;;;8.43;;
12110;SDS011;6119;52.372;8.990;2023-04-06T13:19:23;9.10;;;6.90;;
12110;SDS011;6119;52.372;8.990;2023-04-06T13:22:10;9.83;;;7.10;;
12110;SDS011;6119;52.372;8.990;2023-04-06T13:24:57;11.07;;;7.47;;
12110;SDS011;6119;52.372;8.990;2023-04-06T13:27:44;9.37;;;7.30;;
12110;SDS011;6119;52.372;8.990;2023-04-06T13:30:33;11.33;;;7.73;;
12110;SDS011;6119;52.372;8.990;2023-04-06T13:33:20;11.00;;;8.07;;
12110;SDS011;6119;52.372;8.990;2023-04-06T13:36:06;9.70;;;6.77;;
12110;SDS011;6119;52.372;8.990;2023-04-06T13:38:54;12.03;;;7.87;;
12110;SDS011;6119;52.372;8.990;2023-04-06T13:41:42;10.63;;;7.57;;
12110;SDS011;6119;52.372;8.990;2023-04-06T13:44:28;9.33;;;7.50;;
12110;SDS011;6119;52.372;8.990;2023-04-06T13:47:15;10.83;;;6.70;;
12110;SDS011;6119;52.372;8.990;2023-04-06T13:50:01;10.03;;;7.60;;
12110;SDS011;6119;52.372;8.990;2023-04-06T13:52:49;11.70;;;7.80;;
12110;SDS011;6119;52.372;8.990;2023-04-06T13:55:35;11.10;;;7.53;;
12110;SDS011;6119;52.372;8.990;2023-04-06T13:58:23;11.10;;;7.20;;
12110;SDS011;6119;52.372;8.990;2023-04-06T14:01:10;10.43;;;7.40;;
12110;SDS011;6119;52.372;8.990;2023-04-06T14:03:57;8.90;;;7.57;;
12110;SDS011;6119;52.372;8.990;2023-04-06T14:06:44;12.37;;;7.43;;
12110;SDS011;6119;52.372;8.990;2023-04-06T14:09:31;11.20;;;8.50;;
12110;SDS011;6119;52.372;8.990;2023-04-06T14:12:18;10.87;;;8.07;;
12110;SDS011;6119;52.372;8.990;2023-04-06T14:15:06;9.73;;;7.40;;
12110;SDS011;6119;52.372;8.990;2023-04-06T14:17:54;10.93;;;7.83;;
12110;SDS011;6119;52.372;8.990;2023-04-06T14:20:41;11.33;;;7.80;;
12110;SDS011;6119;52.372;8.990;2023-04-06T14:23:28;10.43;;;7.83;;
12110;SDS011;6119;52.372;8.990;2023-04-06T14:26:15;11.23;;;8.00;;
12110;SDS011;6119;52.372;8.990;2023-04-06T14:29:02;12.57;;;7.90;;
12110;SDS011;6119;52.372;8.990;2023-04-06T14:31:50;13.20;;;9.10;;
12110;SDS011;6119;52.372;8.990;2023-04-06T14:34:37;10.73;;;7.93;;
12110;SDS011;6119;52.372;8.990;2023-04-06T14:37:23;11.67;;;8.50;;
12110;SDS011;6119;52.372;8.990;2023-04-06T14:40:10;11.37;;;8.07;;
12110;SDS011;6119;52.372;8.990;2023-04-06T14:42:57;9.90;;;8.20;;
12110;SDS011;6119;52.372;8.990;2023-04-06T14:45:44;11.90;;;8.17;;
12110;SDS011;6119;52.372;8.990;2023-04-06T14:48:31;11.83;;;8.77;;
12110;SDS011;6119;52.372;8.990;2023-04-06T14:51:18;11.83;;;8.63;;
12110;SDS011;6119;52.372;8.990;2023-04-06T14:54:05;11.47;;;8.73;;
12110;SDS011;6119;52.372;8.990;2023-04-06T14:56:51;16.63;;;9.07;;
12110;SDS011;6119;52.372;8.990;2023-04-06T14:59:38;10.53;;;8.40;;
12110;SDS011;6119;52.372;8.990;2023-04-06T15:02:24;15.63;;;9.13;;
12110;SDS011;6119;52.372;8.990;2023-04-06T15:05:13;11.50;;;8.90;;
12110;SDS011;6119;52.372;8.990;2023-04-06T15:07:59;10.97;;;8.43;;
12110;SDS011;6119;52.372;8.990;2023-04-06T15:10:46;11.33;;;8.77;;
12110;SDS011;6119;52.372;8.990;2023-04-06T15:13:33;13.30;;;9.30;;
12110;SDS011;6119;52.372;8.990;2023-04-06T15:16:19;12.90;;;8.90;;
12110;SDS011;6119;52.372;8.990;2023-04-06T15:19:06;12.60;;;9.63;;
12110;SDS011;6119;52.372;8.990;2023-04-06T15:21:55;14.77;;;9.57;;
12110;SDS011;6119;52.372;8.990;2023-04-06T15:24:44;11.03;;;8.60;;
12110;SDS011;6119;52.372;8.990;2023-04-06T15:27:30;13.10;;;8.97;;
12110;SDS011;6119;52.372;8.990;2023-04-06T15:30:16;13.40;;;9.40;;
12110;SDS011;6119;52.372;8.990;2023-04-06T15:33:03;14.17;;;9.47;;
12110;SDS011;6119;52.372;8.990;2023-04-06T15:35:52;15.40;;;8.63;;
12110;SDS011;6119;52.372;8.990;2023-04-06T15:38:41;12.40;;;9.57;;
12110;SDS011;6119;52.372;8.990;2023-04-06T15:41:27;15.67;;;9.47;;
12110;SDS011;6119;52.372;8.990;2023-04-06T15:44:14;11.70;;;8.90;;
12110;SDS011;6119;52.372;8.990;2023-04-06T15:47:01;13.77;;;9.67;;
12110;SDS011;6119;52.372;8.990;2023-04-06T15:49:48;11.73;;;9.33;;
12110;SDS011;6119;52.372;8.990;2023-04-06T15:52:34;13.63;;;9.40;;
12110;SDS011;6119;52.372;8.990;2023-04-06T15:55:22;13.90;;;8.97;;
12110;SDS011;6119;52.372;8.990;2023-04-06T15:58:09;14.53;;;9.97;;
12110;SDS011;6119;52.372;8.990;2023-04-06T16:00:56;14.47;;;10.33;;
12110;SDS011;6119;52.372;8.990;2023-04-06T16:03:42;13.90;;;9.37;;
12110;SDS011;6119;52.372;8.990;2023-04-06T16:06:30;11.63;;;9.10;;
12110;SDS011;6119;52.372;8.990;2023-04-06T16:09:17;16.73;;;8.77;;
12110;SDS011;6119;52.372;8.990;2023-04-06T16:12:05;10.17;;;7.70;;
12110;SDS011;6119;52.372;8.990;2023-04-06T16:14:52;14.13;;;8.50;;
12110;SDS011;6119;52.372;8.990;2023-04-06T16:17:40;11.50;;;8.07;;
12110;SDS011;6119;52.372;8.990;2023-04-06T16:20:27;12.40;;;8.33;;
12110;SDS011;6119;52.372;8.990;2023-04-06T16:23:14;11.20;;;8.13;;
12110;SDS011;6119;52.372;8.990;2023-04-06T16:26:00;13.47;;;7.47;;
12110;SDS011;6119;52.372;8.990;2023-04-06T16:28:48;11.30;;;7.77;;
12110;SDS011;6119;52.372;8.990;2023-04-06T16:31:35;10.93;;;8.20;;
12110;SDS011;6119;52.372;8.990;2023-04-06T16:34:22;11.77;;;7.80;;
12110;SDS011;6119;52.372;8.990;2023-04-06T16:37:08;9.57;;;7.10;;
12110;SDS011;6119;52.372;8.990;2023-04-06T16:39:54;11.87;;;8.17;;
12110;SDS011;6119;52.372;8.990;2023-04-06T16:42:42;10.80;;;7.27;;
12110;SDS011;6119;52.372;8.990;2023-04-06T16:45:30;11.50;;;7.73;;
12110;SDS011;6119;52.372;8.990;2023-04-06T16:48:16;14.37;;;8.17;;
12110;SDS011;6119;52.372;8.990;2023-04-06T16:51:03;12.70;;;7.47;;
12110;SDS011;6119;52.372;8.990;2023-04-06T16:53:50;14.50;;;8.67;;
12110;SDS011;6119;52.372;8.990;2023-04-06T16:56:37;12.53;;;8.27;;